Time;durP1;ratioP1;P1;durP2;ratioP2;P2;SDS_P1;SDS_P2;PMS_P1;PMS_P2;Temp;Humidity;BMP_temperature;BMP_pressure;BME280_temperature;BME280_humidity;BME280_pressure;Samples;Min_cycle;Max_cycle;Signal;HPM_P1;HPM_P2
2023/01/30 00:00:35;;;;;;;24.67;14.23;;;;;;;6.16;64.97;101059.94;4945610;28;98846;-78
2023/01/30 00:03:00;;;;;;;27.80;14.53;;;;;;;6.21;65.00;101084.66;4946443;28;100457;-79
2023/01/30 00:05:26;;;;;;;27.20;14.53;;;;;;;6.21;64.75;101051.88;4935947;28;97781;-79
2023/01/30 00:07:51;;;;;;;26.67;14.10;;;;;;;6.22;65.02;101039.00;4943971;28;100042;-78
2023/01/30 00:10:17;;;;;;;22.53;13.07;;;;;;;6.22;65.00;101052.66;4944384;28;99132;-79
2023/01/30 00:12:42;;;;;;;30.33;14.63;;;;;;;6.24;64.76;101056.44;4952921;28;97420;-78
2023/01/30 00:15:08;;;;;;;26.70;13.60;;;;;;;6.28;64.86;101064.50;4942756;28;97697;-76
2023/01/30 00:17:34;;;;;;;24.27;13.60;;;;;;;6.31;64.78;101067.06;4943091;28;97681;-77
2023/01/30 00:19:59;;;;;;;23.70;13.93;;;;;;;6.33;64.95;101085.75;4937223;28;98886;-77
2023/01/30 00:22:25;;;;;;;30.63;13.10;;;;;;;6.35;64.79;101086.06;4942187;28;97250;-78
2023/01/30 00:24:50;;;;;;;27.50;13.40;;;;;;;6.36;64.63;101099.28;4940120;28;97316;-78
2023/01/30 00:27:15;;;;;;;29.70;14.90;;;;;;;6.40;64.92;101097.16;4939194;28;97757;-75
2023/01/30 00:29:41;;;;;;;23.17;12.47;;;;;;;6.41;64.79;101104.16;4939673;28;97794;-79
2023/01/30 00:32:06;;;;;;;28.83;13.33;;;;;;;6.42;64.74;101094.00;4941179;28;96820;-77
2023/01/30 00:34:31;;;;;;;25.30;12.13;;;;;;;6.41;64.67;101065.13;4941450;28;97311;-78
2023/01/30 00:36:57;;;;;;;26.17;14.10;;;;;;;6.44;64.74;101042.38;4938537;28;100567;-79
2023/01/30 00:39:22;;;;;;;27.70;14.30;;;;;;;6.42;64.81;101055.72;4957068;28;97264;-77
2023/01/30 00:47:16;;;;;;;20.07;11.47;;;;;;;6.35;65.38;101006.84;4942818;28;97255;-78
2023/01/30 00:49:41;;;;;;;23.97;12.80;;;;;;;6.39;65.41;101002.75;4941485;28;100560;-78
2023/01/30 00:52:07;;;;;;;29.50;13.53;;;;;;;6.39;65.55;101007.44;4938463;28;97055;-77
2023/01/30 00:54:32;;;;;;;26.87;13.50;;;;;;;6.39;65.43;100997.28;4947108;28;97560;-78
2023/01/30 00:56:58;;;;;;;23.77;14.13;;;;;;;6.41;65.39;100992.13;4934785;28;100227;-78
2023/01/30 00:59:23;;;;;;;24.57;12.87;;;;;;;6.39;65.57;100996.50;4950095;28;100170;-77
2023/01/30 01:01:48;;;;;;;26.00;12.77;;;;;;;6.43;65.59;100980.72;4942027;28;97361;-78
2023/01/30 01:04:14;;;;;;;27.20;15.13;;;;;;;6.40;65.42;100963.25;4935792;28;97160;-77
2023/01/30 01:06:39;;;;;;;29.97;13.00;;;;;;;6.41;65.77;100950.34;4939529;28;100496;-77
2023/01/30 01:09:05;;;;;;;20.63;12.60;;;;;;;6.40;65.56;100967.97;4940711;28;97607;-78
2023/01/30 01:11:31;;;;;;;28.80;13.83;;;;;;;6.42;65.82;100930.03;4944181;28;97024;-78
2023/01/30 01:13:59;;;;;;;25.70;11.97;;;;;;;6.40;65.57;100933.19;4949600;28;97437;-78
2023/01/30 01:16:26;;;;;;;24.67;12.10;;;;;;;6.43;65.63;100920.59;4941153;28;100957;-80
2023/01/30 01:18:52;;;;;;;23.90;12.97;;;;;;;6.44;65.51;100911.97;4941331;28;98968;-78
2023/01/30 01:21:19;;;;;;;26.50;12.63;;;;;;;6.40;65.89;100911.34;4940700;28;97019;-75
2023/01/30 01:23:52;;;;;;;25.40;12.83;;;;;;;6.42;66.06;100905.44;4948870;28;97454;-79
2023/01/30 01:26:18;;;;;;;21.60;12.00;;;;;;;6.39;65.84;100893.44;4946098;28;98945;-77
2023/01/30 01:28:43;;;;;;;27.80;13.63;;;;;;;6.40;65.98;100888.75;4942874;28;97293;-78
2023/01/30 01:31:13;;;;;;;22.93;12.60;;;;;;;6.41;66.07;100895.72;4963745;28;96856;-78
2023/01/30 01:33:39;;;;;;;26.60;13.47;;;;;;;6.38;66.14;100896.59;4940738;28;96980;-79
2023/01/30 01:36:06;;;;;;;28.80;13.60;;;;;;;6.44;65.93;100887.38;4950018;28;101039;-76
2023/01/30 01:38:31;;;;;;;31.90;14.93;;;;;;;6.42;66.13;100892.50;4951207;28;96938;-78
2023/01/30 01:41:08;;;;;;;24.13;12.47;;;;;;;6.43;66.38;100855.00;4947847;28;96646;-79
2023/01/30 01:43:58;;;;;;;26.07;12.10;;;;;;;6.45;66.53;100847.13;4947703;28;96905;-79
2023/01/30 01:46:41;;;;;;;19.93;11.50;;;;;;;6.46;66.26;100852.13;4946277;28;96907;-79
2023/01/30 01:49:29;;;;;;;22.13;12.20;;;;;;;6.48;66.92;100833.31;4948088;28;97244;-77
2023/01/30 01:52:02;;;;;;;33.40;13.87;;;;;;;6.52;66.49;100841.34;4945035;28;97623;-78
2023/01/30 01:54:30;;;;;;;26.20;12.60;;;;;;;6.53;66.29;100845.59;4939396;28;97292;-79
2023/01/30 01:56:58;;;;;;;24.50;13.23;;;;;;;6.52;66.33;100853.03;4938061;28;96783;-78
2023/01/30 01:59:31;;;;;;;20.93;12.00;;;;;;;6.57;66.23;100855.16;4942091;28;98702;-78
2023/01/30 02:02:02;;;;;;;23.80;13.47;;;;;;;6.59;66.26;100847.25;4961851;28;96916;-79
2023/01/30 02:07:17;;;;;;;25.80;12.60;;;;;;;6.58;66.69;100836.75;4942953;28;97800;-76
2023/01/30 02:09:43;;;;;;;23.40;12.37;;;;;;;6.62;66.56;100831.88;4946427;28;98915;-78
2023/01/30 02:12:10;;;;;;;24.33;13.10;;;;;;;6.65;66.34;100820.81;4943377;28;96987;-77
2023/01/30 02:14:36;;;;;;;26.20;13.80;;;;;;;6.67;66.33;100812.91;4935731;28;97478;-78
2023/01/30 02:17:01;;;;;;;25.17;14.07;;;;;;;6.68;66.46;100810.94;4943374;28;97904;-79
2023/01/30 02:19:58;;;;;;;26.73;13.70;;;;;;;6.71;66.73;100808.03;4939736;28;100783;-80
2023/01/30 02:23:10;;;;;;;23.03;12.90;;;;;;;6.71;67.41;100793.59;4944226;28;97456;-77
2023/01/30 02:26:02;;;;;;;22.77;11.37;;;;;;;6.71;67.19;100788.88;4943072;28;97429;-77
2023/01/30 02:29:01;;;;;;;23.40;12.93;;;;;;;6.79;67.01;100797.53;4939827;28;96910;-78
2023/01/30 02:31:38;;;;;;;19.67;12.40;;;;;;;6.82;66.80;100788.38;4944877;28;97095;-78
2023/01/30 02:34:31;;;;;;;28.20;13.50;;;;;;;6.82;67.55;100782.91;4945324;28;96774;-77
2023/01/30 02:37:24;;;;;;;24.97;13.40;;;;;;;6.83;67.33;100762.56;4946000;28;97364;-78
2023/01/30 02:40:07;;;;;;;21.70;11.67;;;;;;;6.87;66.77;100768.63;4945937;28;98793;-79
2023/01/30 02:42:58;;;;;;;26.03;13.17;;;;;;;6.90;67.33;100750.53;4940702;28;97142;-78
2023/01/30 02:45:52;;;;;;;19.87;10.93;;;;;;;6.96;66.73;100754.13;4947242;28;96769;-77
2023/01/30 02:48:54;;;;;;;24.77;13.57;;;;;;;6.95;67.94;100739.69;4926251;28;97069;-79
2023/01/30 02:51:25;;;;;;;23.17;12.40;;;;;;;6.95;67.07;100725.25;4935804;28;98101;-79
2023/01/30 02:53:50;;;;;;;23.63;12.10;;;;;;;7.00;67.05;100735.56;4952707;28;97225;-79
2023/01/30 02:56:16;;;;;;;22.70;12.07;;;;;;;6.98;67.07;100768.84;4946940;28;96995;-78
2023/01/30 02:58:52;;;;;;;20.90;11.70;;;;;;;7.09;66.94;100727.31;4944329;28;97247;-79
2023/01/30 03:01:53;;;;;;;21.27;12.03;;;;;;;7.11;67.95;100722.88;4942798;28;98791;-78
2023/01/30 03:04:41;;;;;;;17.63;10.47;;;;;;;7.15;66.65;100720.72;4894412;28;101029;-79
2023/01/30 03:07:21;;;;;;;20.50;10.20;;;;;;;7.18;67.00;100716.31;4930555;28;97148;-78
2023/01/30 03:10:04;;;;;;;17.00;10.47;;;;;;;7.20;67.01;100702.91;4940812;28;97108;-78
2023/01/30 03:13:05;;;;;;;19.60;10.60;;;;;;;7.25;67.10;100700.28;4938274;28;98195;-79
2023/01/30 03:15:34;;;;;;;21.40;10.83;;;;;;;7.22;67.15;100706.69;4902353;28;100370;-79
2023/01/30 03:18:01;;;;;;;16.80;10.37;;;;;;;7.24;67.96;100684.34;4946912;28;97094;-76
2023/01/30 03:20:26;;;;;;;18.10;10.03;;;;;;;7.21;67.37;100683.28;4942973;28;97193;-78
2023/01/30 03:22:53;;;;;;;18.50;10.57;;;;;;;7.24;67.25;100693.31;4948674;28;98582;-79
2023/01/30 03:25:22;;;;;;;16.10;9.17;;;;;;;7.26;67.46;100684.63;4942359;28;97762;-80
2023/01/30 03:27:50;;;;;;;18.93;11.20;;;;;;;7.29;67.34;100681.72;4940568;28;97121;-79
2023/01/30 03:30:16;;;;;;;18.77;10.43;;;;;;;7.31;67.58;100676.53;4945256;28;97409;-76
2023/01/30 03:32:41;;;;;;;16.10;9.70;;;;;;;7.33;67.57;100679.56;4940628;28;98467;-79
2023/01/30 03:35:08;;;;;;;15.33;9.07;;;;;;;7.34;67.62;100674.81;4939978;28;97881;-79
2023/01/30 03:37:33;;;;;;;18.37;10.97;;;;;;;7.36;67.48;100662.19;4946122;28;97153;-79
2023/01/30 03:39:59;;;;;;;15.83;9.97;;;;;;;7.39;67.62;100665.97;4944868;28;96817;-79
2023/01/30 03:42:24;;;;;;;18.00;10.30;;;;;;;7.37;67.55;100641.06;4935835;28;97493;-79
2023/01/30 03:44:49;;;;;;;15.73;9.17;;;;;;;7.39;67.74;100666.72;4940907;28;97070;-79
2023/01/30 03:47:15;;;;;;;13.13;8.10;;;;;;;7.40;67.76;100651.06;4957297;28;96951;-78
2023/01/30 03:49:40;;;;;;;14.93;8.80;;;;;;;7.42;67.63;100649.38;4943713;28;96756;-78
2023/01/30 03:52:05;;;;;;;12.60;8.23;;;;;;;7.47;67.57;100647.94;4947968;28;97805;-78
2023/01/30 03:54:31;;;;;;;11.97;7.70;;;;;;;7.49;67.55;100640.78;4946506;28;99088;-79
2023/01/30 03:56:56;;;;;;;14.00;8.20;;;;;;;7.49;67.53;100645.50;4939484;28;97446;-79
2023/01/30 03:59:21;;;;;;;13.30;7.40;;;;;;;7.48;68.17;100622.84;4946069;28;97292;-78
2023/01/30 04:01:47;;;;;;;10.97;7.13;;;;;;;7.46;67.78;100628.03;4945032;28;98067;-78
2023/01/30 04:04:12;;;;;;;12.13;7.20;;;;;;;7.50;67.84;100612.19;4939284;28;97199;-79
2023/01/30 04:06:37;;;;;;;13.70;8.03;;;;;;;7.57;67.88;100627.47;4952465;28;97137;-77
2023/01/30 04:09:03;;;;;;;11.23;7.50;;;;;;;7.58;67.93;100618.03;4942536;28;97032;-78
2023/01/30 04:11:28;;;;;;;12.53;6.73;;;;;;;7.64;67.84;100615.41;4935600;28;97594;-77
2023/01/30 04:13:53;;;;;;;12.70;8.47;;;;;;;7.65;68.11;100617.66;4937516;28;97627;-77
2023/01/30 04:16:21;;;;;;;13.07;7.80;;;;;;;7.63;68.07;100600.19;4945477;28;96972;-77
2023/01/30 04:18:47;;;;;;;12.13;7.73;;;;;;;7.69;68.14;100603.78;4952833;28;96764;-78
2023/01/30 04:21:13;;;;;;;13.87;7.90;;;;;;;7.71;67.69;100609.53;4945350;28;100437;-79
2023/01/30 04:23:39;;;;;;;12.17;8.00;;;;;;;7.75;67.63;100602.66;4938758;28;97233;-77
2023/01/30 04:26:05;;;;;;;14.00;7.90;;;;;;;7.78;67.85;100601.69;4942163;28;96959;-77
2023/01/30 04:28:30;;;;;;;13.87;8.00;;;;;;;7.78;67.68;100603.66;4944914;28;97130;-79
2023/01/30 04:30:56;;;;;;;12.80;7.57;;;;;;;7.79;68.13;100619.63;4942726;28;97903;-79
2023/01/30 04:33:21;;;;;;;11.70;6.97;;;;;;;7.72;68.13;100600.09;4938829;28;97621;-78
2023/01/30 04:35:51;;;;;;;11.50;7.07;;;;;;;7.84;67.92;100608.00;4939562;28;97672;-79
2023/01/30 04:38:17;;;;;;;13.67;7.60;;;;;;;7.82;68.25;100596.78;4945393;28;98729;-76
2023/01/30 04:40:50;;;;;;;14.50;7.90;;;;;;;7.84;68.18;100612.75;4942223;28;97879;-78
2023/01/30 04:43:16;;;;;;;10.53;7.27;;;;;;;7.90;68.07;100588.94;4940024;28;99010;-80
2023/01/30 04:45:43;;;;;;;11.97;7.60;;;;;;;7.89;67.89;100598.38;4950057;28;97603;-79
2023/01/30 04:48:08;;;;;;;12.10;7.00;;;;;;;7.89;68.09;100579.94;4944548;28;97685;-79
2023/01/30 04:50:33;;;;;;;12.20;7.90;;;;;;;7.90;68.43;100586.19;4943950;28;99280;-80
2023/01/30 04:52:59;;;;;;;9.63;6.40;;;;;;;7.93;68.33;100577.03;4939621;28;96708;-79
2023/01/30 04:55:24;;;;;;;11.37;7.70;;;;;;;7.97;68.27;100569.38;4945030;28;96810;-79
2023/01/30 04:57:49;;;;;;;13.17;7.20;;;;;;;7.94;68.34;100564.84;4953949;28;97604;-79
2023/01/30 05:00:15;;;;;;;9.40;7.10;;;;;;;8.00;68.41;100580.13;4945193;28;99074;-79
2023/01/30 05:02:40;;;;;;;10.53;6.50;;;;;;;8.04;68.34;100579.91;4944797;28;98379;-79
2023/01/30 05:05:06;;;;;;;10.40;7.47;;;;;;;8.07;68.17;100559.78;4937538;28;97402;-80
2023/01/30 05:07:31;;;;;;;9.97;5.73;;;;;;;8.13;68.18;100557.88;4947378;28;96862;-78
2023/01/30 05:09:57;;;;;;;12.17;7.90;;;;;;;8.15;68.19;100566.38;4944956;28;97779;-81
2023/01/30 05:12:22;;;;;;;11.00;7.03;;;;;;;8.16;68.20;100565.91;4935474;28;100410;-79
2023/01/30 05:14:47;;;;;;;10.30;6.77;;;;;;;8.19;68.33;100577.91;4957776;28;97063;-80
2023/01/30 05:17:13;;;;;;;9.80;6.70;;;;;;;8.21;68.68;100559.00;4946493;28;97043;-79
2023/01/30 05:19:38;;;;;;;9.10;6.50;;;;;;;8.23;68.30;100551.06;4941079;28;97700;-80
2023/01/30 05:22:03;;;;;;;12.27;7.00;;;;;;;8.26;68.55;100545.38;4951358;28;98523;-79
2023/01/30 05:24:29;;;;;;;9.10;6.77;;;;;;;8.27;68.49;100573.56;4944185;28;97827;-80
2023/01/30 05:26:54;;;;;;;8.10;5.97;;;;;;;8.25;68.31;100510.22;4951984;28;97224;-81
2023/01/30 05:29:20;;;;;;;9.80;6.47;;;;;;;8.31;68.75;100541.22;4955976;28;99823;-80
2023/01/30 05:31:45;;;;;;;7.00;4.97;;;;;;;8.37;68.73;100522.84;4946346;28;96849;-79
2023/01/30 05:34:11;;;;;;;6.80;5.60;;;;;;;8.41;68.62;100528.16;4945839;28;96879;-78
2023/01/30 05:36:36;;;;;;;7.30;5.37;;;;;;;8.45;68.33;100526.72;4949983;28;96743;-80
2023/01/30 05:39:02;;;;;;;6.67;4.83;;;;;;;8.45;68.68;100523.97;4941699;28;99088;-78
2023/01/30 05:41:27;;;;;;;5.50;4.80;;;;;;;8.44;68.70;100540.88;4938509;28;97436;-80
2023/01/30 05:43:52;;;;;;;6.20;4.57;;;;;;;8.54;68.60;100531.28;4946931;28;96809;-80
2023/01/30 05:46:18;;;;;;;6.93;4.30;;;;;;;8.56;68.51;100542.53;4950266;28;100802;-79
2023/01/30 05:48:44;;;;;;;6.67;4.63;;;;;;;8.57;68.70;100527.56;4953975;28;100293;-78
2023/01/30 05:51:21;;;;;;;6.07;4.17;;;;;;;8.62;68.69;100527.66;4945922;28;97376;-79
2023/01/30 05:53:47;;;;;;;4.63;4.00;;;;;;;8.64;68.47;100527.91;4946246;28;97003;-78
2023/01/30 05:56:12;;;;;;;4.67;4.17;;;;;;;8.64;68.47;100549.84;4945431;28;97393;-80
2023/01/30 05:58:38;;;;;;;7.17;5.07;;;;;;;8.68;68.74;100550.41;4947390;28;99385;-80
2023/01/30 06:01:08;;;;;;;5.73;4.50;;;;;;;8.72;68.51;100542.72;4946106;28;100886;-79
2023/01/30 06:03:34;;;;;;;5.57;4.17;;;;;;;8.71;68.31;100568.66;4943407;28;96766;-80
2023/01/30 06:06:04;;;;;;;8.43;4.27;;;;;;;8.73;68.51;100570.91;4941376;28;98411;-79
2023/01/30 06:08:29;;;;;;;6.07;4.50;;;;;;;8.72;68.40;100553.69;4949999;28;100267;-79
2023/01/30 06:11:00;;;;;;;5.07;3.97;;;;;;;8.75;68.54;100579.41;4946858;28;97571;-77
2023/01/30 06:13:25;;;;;;;5.13;4.60;;;;;;;8.73;68.53;100546.97;4940976;28;97092;-79
2023/01/30 06:15:51;;;;;;;4.97;3.80;;;;;;;8.72;68.74;100550.19;4947117;28;97062;-82
2023/01/30 06:18:17;;;;;;;5.50;3.93;;;;;;;8.71;68.83;100554.94;4943533;28;100192;-80
2023/01/30 06:20:47;;;;;;;4.67;3.90;;;;;;;8.71;68.62;100563.16;4949494;28;100692;-79
2023/01/30 06:23:12;;;;;;;5.83;2.87;;;;;;;8.67;68.80;100540.66;4944291;28;96825;-79
2023/01/30 06:25:41;;;;;;;3.53;2.50;;;;;;;8.64;68.94;100558.09;4963677;28;97150;-79
2023/01/30 06:28:06;;;;;;;4.43;3.00;;;;;;;8.59;68.85;100555.25;4951215;28;97845;-79
2023/01/30 06:30:32;;;;;;;6.20;2.53;;;;;;;8.54;69.03;100569.69;4953471;28;97759;-79
2023/01/30 06:32:57;;;;;;;3.67;2.50;;;;;;;8.50;68.99;100575.34;4945463;28;97324;-79
2023/01/30 06:35:22;;;;;;;4.47;2.40;;;;;;;8.47;69.32;100590.03;4946268;28;97418;-80
2023/01/30 06:37:48;;;;;;;3.10;2.00;;;;;;;8.38;69.16;100603.84;4945662;28;98494;-80
2023/01/30 06:40:13;;;;;;;3.53;2.00;;;;;;;8.45;69.17;100600.72;4946816;28;97359;-79
2023/01/30 06:42:46;;;;;;;3.40;2.50;;;;;;;8.47;69.15;100603.75;4942603;28;97330;-79
2023/01/30 06:45:17;;;;;;;3.17;2.83;;;;;;;8.51;69.10;100592.56;4948437;28;97218;-78
2023/01/30 06:47:53;;;;;;;4.00;2.83;;;;;;;8.53;69.16;100590.09;4945151;28;101124;-78
2023/01/30 06:50:21;;;;;;;13.83;6.20;;;;;;;8.51;68.80;100601.53;4939242;28;98537;-79
2023/01/30 06:52:49;;;;;;;25.83;9.47;;;;;;;8.49;69.04;100600.50;4953340;28;97220;-78
2023/01/30 06:55:17;;;;;;;14.57;7.70;;;;;;;8.51;68.84;100593.31;4944788;28;97195;-79
2023/01/30 06:57:43;;;;;;;13.93;5.93;;;;;;;8.49;68.66;100604.00;4943430;28;97274;-79
2023/01/30 07:00:12;;;;;;;12.13;4.30;;;;;;;8.47;68.56;100619.44;4945105;28;97504;-79
2023/01/30 07:02:37;;;;;;;16.73;5.63;;;;;;;8.47;68.88;100620.19;4945419;28;97611;-79
2023/01/30 07:05:04;;;;;;;9.97;4.17;;;;;;;8.51;68.53;100609.78;4938184;28;96891;-78
2023/01/30 07:07:30;;;;;;;8.73;3.50;;;;;;;8.48;68.69;100610.72;4940294;28;100344;-76
2023/01/30 07:09:56;;;;;;;11.10;2.87;;;;;;;8.49;68.50;100614.22;4946987;28;98489;-79
2023/01/30 07:12:23;;;;;;;7.80;2.63;;;;;;;8.50;68.66;100608.25;4946676;28;97151;-76
2023/01/30 07:14:49;;;;;;;10.10;2.57;;;;;;;8.51;68.29;100615.25;4943273;28;97007;-78
2023/01/30 07:17:14;;;;;;;5.07;3.20;;;;;;;8.48;68.45;100607.22;4942303;28;97065;-76
2023/01/30 07:19:40;;;;;;;7.97;3.03;;;;;;;8.51;68.50;100601.53;4941936;28;100400;-79
2023/01/30 07:22:06;;;;;;;13.77;2.30;;;;;;;8.50;68.34;100610.22;4941112;28;96741;-77
2023/01/30 07:24:31;;;;;;;11.43;1.83;;;;;;;8.51;68.34;100611.75;4945339;28;97801;-79
2023/01/30 07:26:57;;;;;;;10.23;1.87;;;;;;;8.50;68.32;100608.25;4938020;28;99225;-79
2023/01/30 07:29:22;;;;;;;9.53;2.57;;;;;;;8.50;68.42;100613.72;4944817;28;97772;-78
2023/01/30 07:31:47;;;;;;;10.33;2.30;;;;;;;8.47;68.32;100602.97;4956784;28;98524;-79
2023/01/30 07:34:13;;;;;;;8.70;2.77;;;;;;;8.44;68.07;100610.16;4938005;28;96954;-78
2023/01/30 07:36:38;;;;;;;4.27;1.63;;;;;;;8.40;67.95;100642.50;4950619;28;100415;-77
2023/01/30 07:39:04;;;;;;;6.40;1.87;;;;;;;8.32;67.91;100609.25;4948381;28;96884;-78
2023/01/30 07:41:29;;;;;;;7.93;2.40;;;;;;;8.26;68.06;100605.69;4942763;28;96674;-79
2023/01/30 07:43:55;;;;;;;9.37;1.73;;;;;;;8.22;68.20;100616.06;4947902;28;96899;-79
2023/01/30 07:46:20;;;;;;;7.20;1.80;;;;;;;8.20;67.87;100615.03;4942650;28;100397;-77
2023/01/30 07:48:46;;;;;;;15.10;2.50;;;;;;;8.20;68.13;100620.50;4943766;28;98696;-79
2023/01/30 07:51:11;;;;;;;11.87;2.20;;;;;;;8.16;67.79;100628.19;4941845;28;97545;-80
2023/01/30 07:53:37;;;;;;;7.77;2.23;;;;;;;8.13;67.95;100629.88;4945227;28;97459;-78
2023/01/30 07:56:09;;;;;;;12.27;2.50;;;;;;;8.12;67.82;100622.91;4953157;28;101051;-79
2023/01/30 07:58:35;;;;;;;5.03;1.67;;;;;;;8.12;68.08;100633.88;4944601;28;99005;-79
2023/01/30 08:01:01;;;;;;;7.90;1.87;;;;;;;8.15;67.79;100640.34;4950097;28;97155;-77
2023/01/30 08:03:26;;;;;;;6.07;1.80;;;;;;;8.12;68.03;100641.31;4942309;28;97198;-78
2023/01/30 08:05:52;;;;;;;11.60;2.40;;;;;;;8.11;67.86;100665.22;4940617;28;99433;-79
2023/01/30 08:08:18;;;;;;;9.00;2.00;;;;;;;8.14;67.79;100663.53;4940831;28;99298;-79
2023/01/30 08:10:44;;;;;;;13.13;2.80;;;;;;;8.14;67.71;100663.53;4942395;28;97298;-79
2023/01/30 08:13:10;;;;;;;13.63;2.40;;;;;;;8.08;67.95;100646.25;4941816;28;97236;-79
2023/01/30 08:15:35;;;;;;;11.30;2.73;;;;;;;8.13;67.71;100653.78;4942507;28;97520;-79
2023/01/30 08:18:00;;;;;;;5.73;1.87;;;;;;;8.14;68.13;100663.53;4944703;28;97639;-79
2023/01/30 08:20:26;;;;;;;11.73;2.40;;;;;;;8.17;68.12;100665.28;4938977;28;96757;-76
2023/01/30 08:22:52;;;;;;;13.73;2.83;;;;;;;8.19;67.66;100671.06;4945948;28;97521;-78
2023/01/30 08:25:18;;;;;;;7.80;2.27;;;;;;;8.20;67.73;100667.84;4950650;28;99484;-78
2023/01/30 08:27:43;;;;;;;7.80;2.67;;;;;;;8.20;68.01;100661.63;4937463;28;97628;-79
2023/01/30 08:30:10;;;;;;;10.50;2.40;;;;;;;8.28;67.98;100663.50;4947594;28;97098;-78
2023/01/30 08:32:35;;;;;;;14.87;2.63;;;;;;;8.34;67.70;100665.59;4941215;28;97027;-77
2023/01/30 08:35:00;;;;;;;8.00;1.70;;;;;;;8.40;67.83;100642.50;4945731;28;100475;-77
2023/01/30 08:37:26;;;;;;;9.90;1.83;;;;;;;8.45;67.44;100639.09;4943187;28;98577;-77
2023/01/30 08:39:51;;;;;;;7.47;1.80;;;;;;;8.46;67.80;100639.84;4950919;28;97050;-77
2023/01/30 08:42:16;;;;;;;5.53;1.20;;;;;;;8.48;67.41;100646.34;4946503;28;96922;-78
2023/01/30 08:44:42;;;;;;;9.90;1.77;;;;;;;8.48;67.52;100643.63;4951653;28;99456;-75
2023/01/30 08:47:07;;;;;;;10.17;1.40;;;;;;;8.51;67.54;100642.66;4938218;28;100580;-77
2023/01/30 08:49:32;;;;;;;8.60;1.67;;;;;;;8.56;67.38;100646.72;4934785;28;97045;-78
2023/01/30 08:51:58;;;;;;;16.17;1.63;;;;;;;8.59;67.29;100634.78;4939589;28;96879;-78
2023/01/30 08:54:23;;;;;;;5.40;1.73;;;;;;;8.62;67.33;100653.78;4952200;28;100684;-78
2023/01/30 08:56:49;;;;;;;6.73;1.90;;;;;;;8.68;67.09;100649.13;4941031;28;97272;-78
2023/01/30 08:59:15;;;;;;;12.17;1.93;;;;;;;8.68;66.87;100640.91;4942705;28;97055;-78
2023/01/30 09:01:41;;;;;;;8.97;1.93;;;;;;;8.72;66.92;100643.44;4941649;28;97595;-78
2023/01/30 09:04:06;;;;;;;10.07;1.63;;;;;;;8.72;66.84;100621.47;4941292;28;97428;-76
2023/01/30 09:06:32;;;;;;;5.93;1.97;;;;;;;8.75;66.80;100626.78;4946278;28;100698;-78
2023/01/30 09:08:58;;;;;;;11.73;1.67;;;;;;;8.79;66.91;100629.31;4940787;28;99249;-77
2023/01/30 09:11:24;;;;;;;7.83;2.70;;;;;;;8.81;66.68;100624.84;4950820;28;97384;-78
2023/01/30 09:13:49;;;;;;;5.67;1.30;;;;;;;8.84;66.68;100629.41;4939684;28;96784;-78
2023/01/30 09:16:15;;;;;;;10.43;2.03;;;;;;;8.87;66.79;100652.34;4946025;28;97836;-77
2023/01/30 09:18:41;;;;;;;8.23;1.57;;;;;;;8.92;66.86;100657.91;4936872;28;96686;-77
2023/01/30 09:21:08;;;;;;;7.60;1.70;;;;;;;9.06;66.57;100645.38;4943229;28;97508;-78
2023/01/30 09:23:33;;;;;;;9.60;1.50;;;;;;;9.12;66.66;100639.91;4942050;28;97251;-76
2023/01/30 09:25:59;;;;;;;8.53;2.00;;;;;;;9.18;66.66;100649.72;4936452;28;99158;-76
2023/01/30 09:28:25;;;;;;;6.07;1.50;;;;;;;9.22;66.32;100644.03;4939928;28;97526;-79
2023/01/30 09:30:50;;;;;;;9.57;2.97;;;;;;;9.19;65.94;100651.25;4943416;28;98036;-77
2023/01/30 09:33:19;;;;;;;6.50;1.43;;;;;;;9.09;66.00;100657.38;4940213;28;99494;-76
2023/01/30 09:35:49;;;;;;;4.97;1.83;;;;;;;9.02;66.33;100662.00;4947220;28;97801;-76
2023/01/30 09:38:14;;;;;;;6.40;1.93;;;;;;;9.00;66.43;100639.78;4944093;28;96917;-77
2023/01/30 09:40:59;;;;;;;7.37;1.73;;;;;;;8.98;66.18;100645.00;4942705;28;97128;-79
2023/01/30 09:43:49;;;;;;;9.10;1.80;;;;;;;9.06;66.66;100645.38;4952454;28;100853;-79
2023/01/30 09:46:18;;;;;;;8.90;1.80;;;;;;;9.12;66.68;100643.44;4950145;28;97079;-75
2023/01/30 09:48:56;;;;;;;6.43;1.80;;;;;;;9.19;66.39;100645.00;4953536;28;96681;-76
2023/01/30 09:52:14;;;;;;;14.57;2.30;;;;;;;9.27;66.53;100637.84;4942394;28;96788;-77
2023/01/30 09:54:43;;;;;;;6.67;1.50;;;;;;;9.40;66.28;100627.25;4907233;28;97288;-76
2023/01/30 09:57:16;;;;;;;6.97;1.80;;;;;;;9.53;66.52;100635.84;4943359;28;98653;-78
2023/01/30 10:00:02;;;;;;;6.40;1.80;;;;;;;9.56;64.64;100645.88;4944854;28;97384;-79
2023/01/30 10:03:09;;;;;;;8.30;2.37;;;;;;;9.56;64.96;100640.38;4916131;28;97615;-77
2023/01/30 10:06:02;;;;;;;4.13;1.30;;;;;;;9.55;64.61;100638.88;4936268;28;100105;-77
2023/01/30 10:08:46;;;;;;;8.00;1.30;;;;;;;9.43;65.51;100653.75;4957084;28;100074;-78
2023/01/30 10:11:46;;;;;;;7.87;1.50;;;;;;;9.31;65.59;100636.41;4943075;28;97431;-78
2023/01/30 10:14:30;;;;;;;8.87;1.63;;;;;;;9.23;66.19;100640.81;4946584;28;103708;-78
2023/01/30 10:17:01;;;;;;;8.37;1.90;;;;;;;9.26;66.19;100645.31;4956297;28;99686;-76
2023/01/30 10:20:11;;;;;;;4.23;1.00;;;;;;;9.34;66.27;100634.69;4952033;28;99582;-79
2023/01/30 10:22:58;;;;;;;8.93;1.93;;;;;;;9.41;66.03;100640.50;4943331;28;96733;-78
2023/01/30 10:25:45;;;;;;;10.33;1.70;;;;;;;9.34;65.61;100651.91;4954962;28;97005;-81
2023/01/30 10:28:10;;;;;;;6.87;1.70;;;;;;;9.19;65.91;100643.00;4950662;28;97865;-80
2023/01/30 10:30:37;;;;;;;4.13;1.43;;;;;;;9.12;66.17;100668.13;4948677;28;97448;-79
2023/01/30 10:33:04;;;;;;;6.03;1.57;;;;;;;9.04;66.09;100648.56;4942614;28;99943;-79
2023/01/30 10:35:34;;;;;;;5.20;1.43;;;;;;;8.87;66.29;100644.88;4940268;28;97321;-79
2023/01/30 10:38:07;;;;;;;6.63;1.10;;;;;;;8.75;66.37;100640.50;4943423;28;97011;-78
2023/01/30 10:40:51;;;;;;;6.17;1.53;;;;;;;8.48;66.03;100667.53;4941418;28;97761;-78
2023/01/30 10:43:28;;;;;;;3.10;1.33;;;;;;;8.22;66.44;100653.66;4948908;28;97229;-79
2023/01/30 10:46:09;;;;;;;0.83;0.60;;;;;;;7.98;66.60;100650.31;4941300;28;97161;-78
2023/01/30 10:49:02;;;;;;;1.50;0.57;;;;;;;7.90;66.78;100633.50;4958050;28;100834;-75
2023/01/30 10:51:46;;;;;;;3.70;0.70;;;;;;;7.81;66.49;100625.41;4941980;28;97816;-75
2023/01/30 10:54:30;;;;;;;2.87;0.70;;;;;;;7.85;67.46;100642.38;4948517;28;97035;-79
2023/01/30 10:57:17;;;;;;;2.40;0.60;;;;;;;7.96;67.13;100630.84;4939916;28;97127;-78
2023/01/30 11:00:03;;;;;;;4.00;1.00;;;;;;;7.98;67.06;100622.91;4957613;28;99372;-78
2023/01/30 11:02:57;;;;;;;5.53;1.03;;;;;;;7.97;67.36;100611.19;4940033;28;97678;-77
2023/01/30 11:05:40;;;;;;;6.37;1.17;;;;;;;8.04;67.29;100616.28;4935612;28;97222;-78
2023/01/30 11:08:20;;;;;;;15.50;1.67;;;;;;;8.14;67.29;100617.69;4944365;28;96953;-77
2023/01/30 11:10:46;;;;;;;6.70;1.30;;;;;;;8.30;67.10;100625.41;4949423;28;100271;-79
2023/01/30 11:13:21;;;;;;;3.80;1.53;;;;;;;8.45;67.42;100606.22;4939734;28;97765;-78
2023/01/30 11:15:49;;;;;;;12.23;2.00;;;;;;;8.46;66.95;100607.69;4944739;28;97078;-78
2023/01/30 11:18:17;;;;;;;6.60;1.30;;;;;;;8.45;66.87;100606.22;4943430;28;96829;-77
2023/01/30 11:20:45;;;;;;;6.97;1.33;;;;;;;8.42;66.89;100629.06;4941034;28;97553;-79
2023/01/30 11:23:38;;;;;;;3.97;1.20;;;;;;;8.42;67.29;100612.63;4947101;28;96868;-78
2023/01/30 11:26:03;;;;;;;11.80;1.50;;;;;;;8.41;67.03;100624.81;4939927;28;97197;-78
2023/01/30 11:28:41;;;;;;;8.40;1.10;;;;;;;8.38;67.08;100579.19;4945706;28;97279;-79
2023/01/30 11:31:16;;;;;;;6.97;1.40;;;;;;;8.30;67.21;100597.25;4942717;28;98821;-77
2023/01/30 11:33:42;;;;;;;2.30;1.10;;;;;;;8.26;67.21;100588.47;4938524;28;97391;-79
2023/01/30 11:36:24;;;;;;;2.40;0.87;;;;;;;8.20;67.13;100584.88;4941047;28;97312;-77
2023/01/30 11:39:19;;;;;;;5.43;1.27;;;;;;;8.16;67.00;100579.63;4944488;28;97461;-78
2023/01/30 11:41:56;;;;;;;4.47;0.97;;;;;;;8.15;67.30;100597.28;4939658;28;97082;-78
2023/01/30 11:44:31;;;;;;;5.40;1.63;;;;;;;8.14;67.30;100614.19;4959497;28;100573;-79
2023/01/30 11:47:07;;;;;;;3.57;1.03;;;;;;;8.12;67.42;100628.38;4944080;28;97203;-77